Seafrance Rodin — FOBQ — position and weather

sailwx.info

Track history (hours):
 
Tides and Currents Weather Stations Pressure Air Temp Water Temp Dewpoint Dewpoint Depression Visibility Wind Speed Wind Dir Waves Ship Positions

Seafrance Rodin

Operator: SeaFrance

Last reported at 2017-May-25 10:30 UTC. Time now 2017-May-25 10:38 UTC.
Position N 50°60' E 001°37'.

Length 185 m; draft 6 m.

MMSI: 227022800.

Date/timePositionNaut miles runAvg speedWind from/ knotsBaromVisibWave heightAir tempDewpointWater temp
2017-May-25 10:30N 50°60' E 001°37'918.3
2017-May-25 10:00N 51°05' E 001°25'4 7.8
2017-May-25 09:30N 51°07' E 001°20'0 0.0
2017-May-25 09:00N 51°07' E 001°20'4 8.8
2017-May-25 08:30N 51°06' E 001°27'1019.2
2017-May-25 08:01N 51°01' E 001°39'815.4
2017-May-25 07:30N 50°58' E 001°51'0 0.4
2017-May-25 07:00N 50°58' E 001°51'0 0.0
2017-May-25 06:30N 50°58' E 001°51'3 6.4
2017-May-25 06:01N 50°58' E 001°46'815.7
2017-May-25 05:30N 50°60' E 001°34'917.7
2017-May-25 05:00N 51°06' E 001°24'3 3.0
2017-May-25 04:06N 51°07' E 001°20'0 0.0
2017-May-25 03:58N 51°07' E 001°20'2 4.6
2017-May-25 03:30N 51°07' E 001°24'1019.0
2017-May-25 03:00N 51°02' E 001°36'917.9
2017-May-25 02:30N 50°58' E 001°49'1 2.6
2017-May-25 02:01N 50°58' E 001°51'0 0.0
2017-May-25 01:31N 50°58' E 001°51'0 0.7
2017-May-25 01:00N 50°58' E 001°51'815.8
2017-May-25 00:30N 50°59' E 001°38'817.0
2017-May-25 00:00N 51°04' E 001°27'6 9.3
2017-May-24 23:25N 51°07' E 001°20'0 0.0
2017-May-24 23:00N 51°07' E 001°20'3 6.0
2017-May-24 22:31N 51°07' E 001°25'918.1
2017-May-24 22:00N 51°02' E 001°37'816.2
2017-May-24 21:30N 50°58' E 001°48'2 3.7
2017-May-24 21:00N 50°58' E 001°51'0 0.0
2017-May-24 20:30N 50°58' E 001°51'4 7.6
2017-May-24 20:01N 50°58' E 001°45'816.2
2017-May-24 19:31N 51°00' E 001°33'816.4
2017-May-24 19:00N 51°06' E 001°23'2 4.9
2017-May-24 18:30N 51°07' E 001°20'0 0.2
2017-May-24 18:00N 51°07' E 001°20'713.1
2017-May-24 17:30N 51°06' E 001°31'1019.7
2017-May-24 17:00N 50°60' E 001°42'611.9
2017-May-24 16:30N 50°58' E 001°51'0 0.0
2017-May-24 16:00N 50°58' E 001°51'1 2.3
2017-May-24 15:31N 50°58' E 001°50'816.3
2017-May-24 15:01N 50°60' E 001°37'918.4
2017-May-24 14:31N 51°04' E 001°24'4 4.0
2017-May-24 13:30N 51°07' E 001°20'4 7.6
2017-May-24 13:01N 51°06' E 001°26'1019.6
2017-May-24 12:31N 51°01' E 001°39'815.9
2017-May-24 12:00N 50°58' E 001°51'0 0.5
2017-May-24 11:30N 50°58' E 001°51'0 0.7
2017-May-24 11:01N 50°58' E 001°51'917.4
2017-May-24 10:30N 50°60' E 001°37'917.9
2017-May-24 10:00N 51°05' E 001°25'4 7.9
2017-May-24 09:29N 51°07' E 001°20'0 0.0
2017-May-24 09:00N 51°07' E 001°20'3 6.2
2017-May-24 08:31N 51°07' E 001°25'918.8
2017-May-24 08:01N 51°01' E 001°37'917.4
2017-May-24 07:30N 50°58' E 001°50'1 1.3
2017-May-24 07:00N 50°58' E 001°51'0 0.0
2017-May-24 06:30N 50°58' E 001°51'3 6.2
2017-May-24 06:00N 50°58' E 001°46'918.0
2017-May-24 05:30N 51°01' E 001°33'1018.8
2017-May-24 05:00N 51°07' E 001°21'1 1.4
2017-May-24 04:30N 51°07' E 001°20'0 0.0
2017-May-24 04:00N 51°07' E 001°20'2 4.2
2017-May-24 03:30N 51°07' E 001°23'918.4
2017-May-24 03:00N 51°03' E 001°36'917.8
2017-May-24 02:30N 50°58' E 001°48'2 3.5
2017-May-24 02:01N 50°58' E 001°51'0 0.0
2017-May-24 01:30N 50°58' E 001°51'1 1.2
2017-May-24 01:00N 50°58' E 001°50'816.3
2017-May-24 00:31N 50°60' E 001°38'917.3
2017-May-24 00:00N 51°05' E 001°27'5 9.5
2017-May-23 23:30N 51°07' E 001°20'0 0.0
2017-May-23 23:00N 51°07' E 001°20'2 4.2
2017-May-23 22:31N 51°07' E 001°23'816.2
2017-May-23 22:01N 51°03' E 001°35'816.7
2017-May-23 21:31N 50°58' E 001°45'4 7.3
2017-May-23 21:01N 50°58' E 001°51'0 0.0
2017-May-23 20:30N 50°58' E 001°51'5 9.7
2017-May-23 20:00N 50°58' E 001°44'917.3
2017-May-23 19:30N 51°02' E 001°31'816.4
2017-May-23 19:00N 51°07' E 001°21'1 1.1
2017-May-23 18:29N 51°08' E 001°20'0 0.0
2017-May-23 18:00N 51°08' E 001°20'611.2
2017-May-23 17:30N 51°05' E 001°28'1019.8
2017-May-23 17:00N 50°60' E 001°41'612.7
2017-May-23 16:30N 50°58' E 001°51'0 0.0
2017-May-23 16:00N 50°58' E 001°51'1 1.6
2017-May-23 15:30N 50°58' E 001°50'815.7
2017-May-23 15:00N 50°59' E 001°38'918.0
2017-May-23 14:30N 51°04' E 001°26'5 4.8
2017-May-23 13:30N 51°07' E 001°20'3 7.0
2017-May-23 13:01N 51°06' E 001°25'917.8
2017-May-23 12:31N 51°02' E 001°37'816.5
2017-May-23 12:01N 50°58' E 001°49'1 2.4
2017-May-23 11:30N 50°58' E 001°51'0 0.6
2017-May-23 11:00N 50°58' E 001°51'817.0
2017-May-23 10:30N 50°60' E 001°38'917.9
2017-May-23 10:00N 51°05' E 001°26'4 8.9
2017-May-23 09:30N 51°07' E 001°20'0 0.0
2017-May-23 08:59N 51°07' E 001°20'3 6.9
2017-May-23 08:30N 51°07' E 001°25'918.4
2017-May-23 08:00N 51°02' E 001°38'816.2
2017-May-23 07:30N 50°58' E 001°50'1 2.3
2017-May-23 07:00N 50°58' E 001°51'0 0.0
2017-May-23 06:30N 50°58' E 001°51'3 5.4
2017-May-23 06:01N 50°58' E 001°47'917.0
2017-May-23 05:30N 51°01' E 001°34'917.1
2017-May-23 05:00N 51°06' E 001°23'2 4.7
2017-May-23 04:30N 51°07' E 001°20'0 0.0
2017-May-23 03:59N 51°07' E 001°20'2 5.0
2017-May-23 03:31N 51°07' E 001°24'917.4
2017-May-23 03:01N 51°02' E 001°35'816.9
2017-May-23 02:30N 50°58' E 001°47'3 5.0
2017-May-23 02:00N 50°58' E 001°51'0 0.0
2017-May-23 01:30N 50°58' E 001°51'0 0.9
2017-May-23 01:01N 50°58' E 001°51'816.4
2017-May-23 00:31N 50°59' E 001°38'917.5
2017-May-23 00:01N 51°05' E 001°27'5 9.7
2017-May-22 23:30N 51°07' E 001°20'0 0.0
2017-May-22 23:00N 51°07' E 001°20'3 6.1
2017-May-22 22:30N 51°07' E 001°25'816.2
2017-May-22 22:00N 51°02' E 001°36'815.5
2017-May-22 21:31N 50°58' E 001°46'3 6.6
2017-May-22 21:00N 50°58' E 001°51'0 0.0
2017-May-22 20:30N 50°58' E 001°51'2 4.4
2017-May-22 20:00N 50°58' E 001°48'917.8
2017-May-22 19:31N 50°60' E 001°34'816.3
2017-May-22 19:01N 51°05' E 001°24'3 6.6
2017-May-22 18:30N 51°07' E 001°20'0 0.0
2017-May-22 18:00N 51°07' E 001°20'511.0
2017-May-22 17:30N 51°06' E 001°28'1019.9
2017-May-22 17:00N 50°60' E 001°41'713.6
2017-May-22 16:30N 50°58' E 001°51'0 0.0
2017-May-22 16:00N 50°58' E 001°51'1 2.4
2017-May-22 15:30N 50°58' E 001°49'816.1
2017-May-22 15:01N 50°59' E 001°37'1313.2
2017-May-22 14:00N 51°07' E 001°20'0 0.0
2017-May-22 13:30N 51°07' E 001°20'5 9.7
2017-May-22 13:00N 51°06' E 001°28'918.1
2017-May-22 12:30N 51°01' E 001°39'816.4
2017-May-22 12:01N 50°58' E 001°51'0 0.4
2017-May-22 11:30N 50°58' E 001°51'0 0.2
2017-May-22 11:00N 50°58' E 001°51'815.5
2017-May-22 10:30N 50°59' E 001°39'816.8
2017-May-22 10:00N 51°04' E 001°28'612.4
2017-May-22 09:30N 51°07' E 001°20'0 0.0
2017-May-22 09:00N 51°07' E 001°20'4 7.2
2017-May-22 08:30N 51°07' E 001°26'918.3
2017-May-22 08:00N 51°02' E 001°38'815.9
2017-May-22 07:31N 50°58' E 001°49'1 2.4
2017-May-22 07:00N 50°58' E 001°51'0 0.0
2017-May-22 06:30N 50°58' E 001°51'2 4.4
2017-May-22 06:00N 50°58' E 001°48'917.5
2017-May-22 05:31N 50°59' E 001°34'917.2
2017-May-22 05:00N 51°06' E 001°24'3 6.4
2017-May-22 04:30N 51°07' E 001°20'0 0.0
2017-May-22 04:00N 51°07' E 001°20'2 3.5
2017-May-22 03:30N 51°07' E 001°23'816.9
2017-May-22 03:00N 51°03' E 001°34'917.3
2017-May-22 02:30N 50°58' E 001°46'3 6.6
2017-May-22 02:01N 50°58' E 001°51'0 0.0
2017-May-22 01:31N 50°58' E 001°51'1 1.7
2017-May-22 01:00N 50°58' E 001°50'816.2
2017-May-22 00:30N 50°59' E 001°37'816.9
2017-May-22 00:00N 51°05' E 001°27'5 9.8
2017-May-21 23:30N 51°07' E 001°20'0 0.0
2017-May-21 23:00N 51°07' E 001°20'2 4.6
2017-May-21 22:30N 51°07' E 001°24'815.9
2017-May-21 22:00N 51°03' E 001°35'816.5
2017-May-21 21:31N 50°58' E 001°45'4 7.6
2017-May-21 21:00N 50°58' E 001°51'0 0.0
2017-May-21 20:30N 50°58' E 001°51'3 6.9
2017-May-21 20:00N 50°58' E 001°46'816.0
2017-May-21 19:30N 51°01' E 001°34'816.1
2017-May-21 19:00N 51°06' E 001°24'3 5.7
2017-May-21 18:31N 51°07' E 001°20'0 0.0
2017-May-21 18:00N 51°07' E 001°20'510.6
2017-May-21 17:31N 51°06' E 001°28'918.2
2017-May-21 17:01N 51°01' E 001°40'714.9
2017-May-21 16:30N 50°58' E 001°51'0 0.2
2017-May-21 16:00N 50°58' E 001°51'1 1.6
2017-May-21 15:31N 50°58' E 001°50'816.2
2017-May-21 15:00N 50°59' E 001°37'1413.6
2017-May-21 14:00N 51°07' E 001°20'0 0.0
2017-May-21 13:30N 51°07' E 001°20'4 8.8
2017-May-21 13:00N 51°06' E 001°27'1019.0
2017-May-21 12:30N 51°01' E 001°39'816.0
2017-May-21 12:00N 50°58' E 001°51'0 0.5
2017-May-21 11:30N 50°58' E 001°52'0 0.0
2017-May-21 11:00N 50°58' E 001°52'0 0.0
2017-May-21 10:30N 50°58' E 001°52'0 0.0
2017-May-21 10:00N 50°58' E 001°52'0 0.2
2017-May-21 09:30N 50°58' E 001°52'0 0.0
2017-May-21 09:00N 50°58' E 001°52'0 0.0
2017-May-21 08:30N 50°58' E 001°52'0 0.0
2017-May-21 08:00N 50°58' E 001°52'0 0.0
2017-May-21 07:30N 50°58' E 001°52'0 0.0
2017-May-21 07:00N 50°58' E 001°52'0 0.0
2017-May-21 06:30N 50°58' E 001°52'0 0.2
2017-May-21 06:00N 50°58' E 001°52'0 0.0
2017-May-21 05:30N 50°58' E 001°52'0 0.0
2017-May-21 05:00N 50°58' E 001°52'0 0.0
2017-May-21 04:30N 50°58' E 001°52'0 0.0
2017-May-21 04:00N 50°58' E 001°52'0 0.0
2017-May-21 03:30N 50°58' E 001°52'0 0.0
2017-May-21 03:00N 50°58' E 001°52'0 0.0
2017-May-21 02:30N 50°58' E 001°52'0 0.0
2017-May-21 02:00N 50°58' E 001°52'0 0.0
2017-May-21 01:30N 50°58' E 001°52'3 5.3
2017-May-21 01:00N 50°58' E 001°48'816.6
2017-May-21 00:30N 51°00' E 001°35'917.1
2017-May-21 00:00N 51°05' E 001°24'3 6.3
2017-May-20 23:31N 51°07' E 001°20'0 0.0
2017-May-20 22:59N 51°07' E 001°20'2 4.0
2017-May-20 22:31N 51°07' E 001°23'917.6
2017-May-20 22:01N 51°02' E 001°35'816.8
2017-May-20 21:31N 50°58' E 001°46'3 6.3
2017-May-20 21:00N 50°58' E 001°51'0 0.0
2017-May-20 20:30N 50°58' E 001°51'3 6.3
2017-May-20 20:00N 50°58' E 001°46'816.8
2017-May-20 19:31N 51°01' E 001°34'816.9
2017-May-20 19:00N 51°06' E 001°23'2 4.8
2017-May-20 18:30N 51°07' E 001°20'0 0.0
2017-May-20 18:00N 51°07' E 001°20'611.2
2017-May-20 17:30N 51°06' E 001°29'1020.3
2017-May-20 17:00N 50°60' E 001°42'612.4
2017-May-20 16:30N 50°58' E 001°51'0 0.0
2017-May-20 16:00N 50°58' E 001°51'0 0.9
2017-May-20 15:30N 50°58' E 001°51'816.6
2017-May-20 15:00N 50°59' E 001°37'918.2
2017-May-20 14:30N 51°05' E 001°26'5 4.7
2017-May-20 13:30N 51°07' E 001°20'4 8.7
2017-May-20 13:00N 51°06' E 001°27'1019.3
2017-May-20 12:30N 51°01' E 001°40'815.2
2017-May-20 12:01N 50°58' E 001°51'0 0.5
2017-May-20 11:31N 50°58' E 001°51'1 2.0
2017-May-20 11:01N 50°58' E 001°50'816.1
2017-May-20 10:31N 51°00' E 001°37'918.7
2017-May-20 10:00N 51°05' E 001°25'4 7.2
2017-May-20 09:31N 51°07' E 001°20'0 0.0
2017-May-20 09:01N 51°07' E 001°20'4 8.6
2017-May-20 08:30N 51°06' E 001°27'918.3
2017-May-20 08:00N 51°01' E 001°39'815.7
2017-May-20 07:31N 50°58' E 001°50'1 1.1
2017-May-20 07:00N 50°58' E 001°51'0 0.0
2017-May-20 06:31N 50°58' E 001°51'3 5.2
2017-May-20 06:00N 50°58' E 001°47'816.6
2017-May-20 05:30N 51°02' E 001°35'917.4
2017-May-20 05:00N 51°06' E 001°23'2 4.7
2017-May-20 04:29N 51°07' E 001°20'0 0.0
2017-May-20 03:59N 51°07' E 001°20'2 4.3
2017-May-20 03:31N 51°07' E 001°23'917.3
2017-May-20 03:01N 51°02' E 001°35'917.1
2017-May-20 02:30N 50°58' E 001°47'3 5.6
2017-May-20 02:00N 50°58' E 001°51'0 0.0
2017-May-20 01:30N 50°58' E 001°51'2 3.6
2017-May-20 01:01N 50°58' E 001°48'815.5
2017-May-20 00:31N 51°00' E 001°36'816.7
2017-May-20 00:01N 51°05' E 001°26'4 8.4
2017-May-19 23:30N 51°07' E 001°20'0 0.0
2017-May-19 23:00N 51°07' E 001°20'2 3.7
2017-May-19 22:30N 51°07' E 001°23'816.5
2017-May-19 22:00N 51°03' E 001°35'816.8
2017-May-19 21:31N 50°58' E 001°45'4 7.6
2017-May-19 21:01N 50°58' E 001°51'0 0.0
2017-May-19 20:30N 50°58' E 001°51'3 6.9
2017-May-19 20:00N 50°58' E 001°46'816.1
2017-May-19 19:30N 51°01' E 001°34'816.2
2017-May-19 19:00N 51°06' E 001°24'3 5.2
2017-May-19 18:29N 51°07' E 001°20'0 0.0
2017-May-19 17:57N 51°07' E 001°20'510.6
2017-May-19 17:30N 51°06' E 001°27'1019.4
2017-May-19 17:00N 51°00' E 001°40'714.6
2017-May-19 16:30N 50°58' E 001°51'0 0.3
2017-May-19 16:00N 50°58' E 001°51'2 3.4
2017-May-19 15:30N 50°58' E 001°49'917.2
2017-May-19 15:00N 50°59' E 001°35'1212.3
2017-May-19 14:01N 51°07' E 001°20'0 0.0
2017-May-19 13:26N 51°07' E 001°20'410.2
2017-May-19 13:00N 51°06' E 001°27'917.7
2017-May-19 12:30N 51°01' E 001°38'816.6
2017-May-19 12:00N 50°58' E 001°50'1 1.2
2017-May-19 11:30N 50°58' E 001°51'0 0.6
2017-May-19 11:00N 50°58' E 001°51'815.6
2017-May-19 10:31N 50°59' E 001°38'918.0
2017-May-19 10:00N 51°05' E 001°27'510.3
2017-May-19 09:30N 51°07' E 001°20'0 0.0
2017-May-19 09:00N 51°07' E 001°20'4 8.2
2017-May-19 08:30N 51°07' E 001°27'917.6
2017-May-19 08:00N 51°01' E 001°38'816.3
2017-May-19 07:30N 50°58' E 001°50'1 1.8
2017-May-19 07:00N 50°58' E 001°51'0 0.0
2017-May-19 06:30N 50°58' E 001°51'3 5.7
2017-May-19 06:00N 50°58' E 001°47'917.1
2017-May-19 05:31N 51°01' E 001°34'917.7
2017-May-19 05:01N 51°06' E 001°23'2 4.0
2017-May-19 04:30N 51°07' E 001°20'0 0.0
2017-May-19 04:00N 51°07' E 001°20'2 4.5
2017-May-19 03:30N 51°07' E 001°24'817.0
2017-May-19 03:00N 51°03' E 001°35'816.6
2017-May-19 02:31N 50°58' E 001°46'3 6.6
2017-May-19 02:00N 50°58' E 001°51'0 0.0
2017-May-19 01:30N 50°58' E 001°51'2 3.7
2017-May-19 01:01N 50°58' E 001°48'816.9
2017-May-19 00:30N 50°60' E 001°35'917.2
2017-May-19 00:00N 51°05' E 001°24'4 7.1
2017-May-18 23:30N 51°07' E 001°20'0 0.0
2017-May-18 23:00N 51°07' E 001°20'2 4.9
2017-May-18 22:30N 51°07' E 001°24'917.4
2017-May-18 22:01N 51°02' E 001°36'816.7
2017-May-18 21:31N 50°58' E 001°47'3 5.1
2017-May-18 21:00N 50°58' E 001°51'0 0.0
2017-May-18 20:30N 50°58' E 001°51'4 8.9
2017-May-18 20:00N 50°58' E 001°44'917.2
2017-May-18 19:30N 51°02' E 001°33'917.4
2017-May-18 19:00N 51°07' E 001°21'1 1.2
2017-May-18 18:30N 51°07' E 001°20'0 0.0
2017-May-18 17:58N 51°07' E 001°20'612.7
2017-May-18 17:30N 51°06' E 001°29'1020.2
2017-May-18 17:01N 50°59' E 001°41'612.7
2017-May-18 16:31N 50°58' E 001°51'0 0.0
2017-May-18 16:01N 50°58' E 001°51'2 3.2
2017-May-18 15:31N 50°58' E 001°49'1019.2
2017-May-18 15:00N 50°59' E 001°34'1211.5
2017-May-18 14:00N 51°07' E 001°20'0 0.0
2017-May-18 13:30N 51°07' E 001°20'714.4
2017-May-18 13:00N 51°04' E 001°30'1122.4
2017-May-18 12:31N 50°58' E 001°45'4 7.8
2017-May-18 12:00N 50°58' E 001°51'0 0.0
2017-May-18 11:30N 50°58' E 001°51'3 5.2
2017-May-18 11:00N 50°58' E 001°47'1019.6
2017-May-18 10:30N 51°01' E 001°32'1019.0
2017-May-18 09:59N 51°07' E 001°20'1 1.5
2017-May-18 09:30N 51°07' E 001°20'0 0.0
2017-May-18 09:00N 51°07' E 001°20'4 7.8
2017-May-18 08:30N 51°07' E 001°26'917.9
2017-May-18 08:00N 51°01' E 001°37'917.3
2017-May-18 07:30N 50°58' E 001°50'1 1.9
2017-May-18 07:00N 50°58' E 001°51'0 0.0
2017-May-18 06:30N 50°58' E 001°51'1 2.5
2017-May-18 06:00N 50°58' E 001°49'816.4
2017-May-18 05:31N 50°60' E 001°36'917.4
2017-May-18 05:01N 51°06' E 001°26'4 8.3
2017-May-18 04:30N 51°07' E 001°20'0 0.0
2017-May-18 04:00N 51°07' E 001°20'2 4.6
2017-May-18 03:30N 51°07' E 001°24'917.5
2017-May-18 03:01N 51°02' E 001°35'816.1
2017-May-18 02:31N 50°58' E 001°46'3 5.8
2017-May-18 02:00N 50°58' E 001°51'0 0.0
2017-May-18 01:30N 50°58' E 001°51'0 0.5
2017-May-18 01:01N 50°58' E 001°51'816.8
2017-May-18 00:31N 50°60' E 001°38'917.8
2017-May-18 00:01N 51°04' E 001°25'5 9.2
2017-May-17 23:30N 51°07' E 001°20'0 0.0
2017-May-17 23:00N 51°07' E 001°20'1 1.1
2017-May-17 22:30N 51°07' E 001°21'917.0
2017-May-17 22:00N 51°04' E 001°33'917.4
2017-May-17 21:30N 50°58' E 001°44'4 8.7
2017-May-17 21:00N 50°58' E 001°51'0 0.0
2017-May-17 20:30N 50°58' E 001°51'3 6.3
2017-May-17 20:01N 50°58' E 001°46'816.8
2017-May-17 19:30N 51°01' E 001°34'918.5
2017-May-17 19:00N 51°06' E 001°22'2 3.1
2017-May-17 18:30N 51°07' E 001°20'0 0.0
2017-May-17 18:00N 51°07' E 001°20'510.9
2017-May-17 17:31N 51°05' E 001°28'918.8
2017-May-17 17:01N 50°60' E 001°40'714.2
2017-May-17 16:31N 50°58' E 001°51'0 0.1
2017-May-17 16:00N 50°58' E 001°51'1 2.1
2017-May-17 15:31N 50°58' E 001°50'816.8
2017-May-17 15:00N 51°00' E 001°37'1312.5
2017-May-17 14:00N 51°07' E 001°20'0 0.0
2017-May-17 13:29N 51°07' E 001°20'4 8.7
2017-May-17 13:00N 51°06' E 001°26'1020.4
2017-May-17 12:30N 51°00' E 001°39'815.2
2017-May-17 12:00N 50°58' E 001°51'0 0.1
2017-May-17 11:31N 50°58' E 001°51'1 1.5
2017-May-17 11:00N 50°58' E 001°50'917.3
2017-May-17 10:30N 50°59' E 001°36'918.8
2017-May-17 10:00N 51°04' E 001°24'4 7.9
2017-May-17 09:30N 51°07' E 001°20'0 0.0
2017-May-17 09:00N 51°07' E 001°20'3 6.4
2017-May-17 08:30N 51°07' E 001°25'918.3
2017-May-17 08:00N 51°01' E 001°37'917.5
2017-May-17 07:30N 50°58' E 001°50'1 1.8
2017-May-17 07:00N 50°58' E 001°51'0 0.0
2017-May-17 06:30N 50°58' E 001°51'2 4.3
2017-May-17 06:00N 50°58' E 001°48'917.5
2017-May-17 05:31N 50°59' E 001°34'917.7
2017-May-17 05:01N 51°05' E 001°23'3 5.6
2017-May-17 04:27N 51°07' E 001°20'0 0.0
2017-May-17 04:00N 51°07' E 001°20'3 5.5
2017-May-17 03:30N 51°07' E 001°24'917.5
2017-May-17 03:00N 51°01' E 001°35'815.7
2017-May-17 02:30N 50°58' E 001°47'3 5.6
2017-May-17 02:00N 50°58' E 001°51'0 0.0
2017-May-17 01:30N 50°58' E 001°51'3 5.4
2017-May-17 01:00N 50°58' E 001°47'817.0
2017-May-17 00:30N 50°57' E 001°33'816.9
2017-May-17 00:00N 51°04' E 001°25'5 9.3
2017-May-16 23:30N 51°07' E 001°20'0 0.0
2017-May-16 22:58N 51°07' E 001°20'1 1.8
2017-May-16 22:31N 51°07' E 001°21'917.5
2017-May-16 22:01N 51°03' E 001°34'918.2
2017-May-16 21:31N 50°58' E 001°46'4 7.0
2017-May-16 21:01N 50°58' E 001°51'0 0.0
2017-May-16 20:30N 50°58' E 001°51'3 6.4
2017-May-16 20:00N 50°58' E 001°46'917.4
2017-May-16 19:30N 51°01' E 001°33'918.2
2017-May-16 19:00N 51°07' E 001°22'1 2.7
2017-May-16 18:31N 51°07' E 001°20'0 0.0
2017-May-16 18:00N 51°07' E 001°20'510.4
2017-May-16 17:30N 51°06' E 001°28'917.9
2017-May-16 17:00N 51°00' E 001°39'815.1
2017-May-16 16:30N 50°58' E 001°51'0 0.3
2017-May-16 16:00N 50°58' E 001°51'1 1.7
2017-May-16 15:31N 50°58' E 001°50'918.8
2017-May-16 15:00N 51°00' E 001°35'1019.4
2017-May-16 14:30N 51°06' E 001°23'2 2.1
2017-May-16 13:30N 51°07' E 001°20'713.3
2017-May-16 13:00N 51°05' E 001°30'1122.1
2017-May-16 12:30N 50°59' E 001°44'5 9.1
2017-May-16 12:01N 50°58' E 001°51'0 0.0
2017-May-16 11:30N 50°58' E 001°51'1 3.0
2017-May-16 11:00N 50°58' E 001°49'917.1
2017-May-16 10:30N 50°60' E 001°36'918.7
2017-May-16 10:00N 51°06' E 001°24'3 6.1
2017-May-16 09:31N 51°07' E 001°20'0 0.0
2017-May-16 09:01N 51°07' E 001°20'3 6.8
2017-May-16 08:30N 51°07' E 001°26'917.8
2017-May-16 08:00N 51°01' E 001°36'816.8
2017-May-16 07:30N 50°58' E 001°49'2 3.2
2017-May-16 07:00N 50°58' E 001°51'0 0.0
2017-May-16 06:30N 50°58' E 001°51'3 5.3
2017-May-16 06:00N 50°58' E 001°47'917.5
2017-May-16 05:30N 51°01' E 001°34'917.8
2017-May-16 05:00N 51°06' E 001°23'2 4.2
2017-May-16 04:30N 51°07' E 001°20'0 0.0
2017-May-16 04:00N 51°07' E 001°20'4 8.1
2017-May-16 03:31N 51°08' E 001°27'815.2
2017-May-16 03:01N 51°07' E 001°39'918.4
2017-May-16 02:31N 50°58' E 001°45'4 8.0
2017-May-16 02:00N 50°58' E 001°51'0 0.0
2017-May-16 01:30N 50°58' E 001°51'1 2.0
2017-May-16 01:00N 50°58' E 001°50'917.1
2017-May-16 00:30N 51°01' E 001°37'917.2
2017-May-16 00:00N 51°05' E 001°25'4 7.7
2017-May-15 23:31N 51°07' E 001°20'0 0.0
2017-May-15 23:01N 51°07' E 001°20'0 0.5
2017-May-15 22:31N 51°07' E 001°20'816.9
2017-May-15 22:01N 51°03' E 001°32'1019.8
2017-May-15 21:30N 50°58' E 001°46'4 7.2
2017-May-15 21:01N 50°58' E 001°51'0 0.0
2017-May-15 20:31N 50°58' E 001°51'612.8
2017-May-15 20:00N 50°58' E 001°41'1019.3
2017-May-15 19:30N 51°03' E 001°28'612.9
2017-May-15 19:00N 51°07' E 001°20'0 0.0
2017-May-15 18:30N 51°07' E 001°20'3 6.2
2017-May-15 18:01N 51°07' E 001°25'918.8
2017-May-15 17:31N 51°03' E 001°38'816.8
2017-May-15 17:01N 50°58' E 001°50'1 2.0
2017-May-15 16:31N 50°58' E 001°51'0 0.0
2017-May-15 16:00N 50°58' E 001°51'1 1.2
2017-May-15 15:31N 50°58' E 001°50'816.6
2017-May-15 15:00N 50°60' E 001°37'1313.2
2017-May-15 14:00N 51°07' E 001°20'0 0.0
2017-May-15 13:29N 51°07' E 001°20'4 8.8
2017-May-15 13:00N 51°07' E 001°27'1020.0
2017-May-15 12:30N 51°01' E 001°40'815.1
2017-May-15 12:01N 50°58' E 001°51'0 0.3
2017-May-15 11:30N 50°58' E 001°51'0 0.9
2017-May-15 11:00N 50°58' E 001°51'  
Track history (hours):
 
Tides and Currents Weather Stations Pressure Air Temp Water Temp Dewpoint Dewpoint Depression Visibility Wind Speed Wind Dir Waves Ship Positions

Seafrance Rodin

Operator: SeaFrance

Last reported at 2017-May-25 10:30 UTC. Time now 2017-May-25 10:38 UTC.
Position N 50°60' E 001°37'.

Length 185 m; draft 6 m.

MMSI: 227022800.

Date/timePositionNaut miles runAvg speedWind from/ knotsBaromVisibWave heightAir tempDewpointWater temp
2017-May-25 10:30N 50°60' E 001°37'918.3
2017-May-25 10:00N 51°05' E 001°25'4 7.8
2017-May-25 09:30N 51°07' E 001°20'0 0.0
2017-May-25 09:00N 51°07' E 001°20'4 8.8
2017-May-25 08:30N 51°06' E 001°27'1019.2
2017-May-25 08:01N 51°01' E 001°39'815.4
2017-May-25 07:30N 50°58' E 001°51'0 0.4
2017-May-25 07:00N 50°58' E 001°51'0 0.0
2017-May-25 06:30N 50°58' E 001°51'3 6.4
2017-May-25 06:01N 50°58' E 001°46'815.7
2017-May-25 05:30N 50°60' E 001°34'917.7
2017-May-25 05:00N 51°06' E 001°24'3 3.0
2017-May-25 04:06N 51°07' E 001°20'0 0.0
2017-May-25 03:58N 51°07' E 001°20'2 4.6
2017-May-25 03:30N 51°07' E 001°24'1019.0
2017-May-25 03:00N 51°02' E 001°36'917.9
2017-May-25 02:30N 50°58' E 001°49'1 2.6
2017-May-25 02:01N 50°58' E 001°51'0 0.0
2017-May-25 01:31N 50°58' E 001°51'0 0.7
2017-May-25 01:00N 50°58' E 001°51'815.8
2017-May-25 00:30N 50°59' E 001°38'817.0
2017-May-25 00:00N 51°04' E 001°27'6 9.3
2017-May-24 23:25N 51°07' E 001°20'0 0.0
2017-May-24 23:00N 51°07' E 001°20'3 6.0
2017-May-24 22:31N 51°07' E 001°25'918.1
2017-May-24 22:00N 51°02' E 001°37'816.2
2017-May-24 21:30N 50°58' E 001°48'2 3.7
2017-May-24 21:00N 50°58' E 001°51'0 0.0
2017-May-24 20:30N 50°58' E 001°51'4 7.6
2017-May-24 20:01N 50°58' E 001°45'816.2
2017-May-24 19:31N 51°00' E 001°33'816.4
2017-May-24 19:00N 51°06' E 001°23'2 4.9
2017-May-24 18:30N 51°07' E 001°20'0 0.2
2017-May-24 18:00N 51°07' E 001°20'713.1
2017-May-24 17:30N 51°06' E 001°31'1019.7
2017-May-24 17:00N 50°60' E 001°42'611.9
2017-May-24 16:30N 50°58' E 001°51'0 0.0
2017-May-24 16:00N 50°58' E 001°51'1 2.3
2017-May-24 15:31N 50°58' E 001°50'816.3
2017-May-24 15:01N 50°60' E 001°37'918.4
2017-May-24 14:31N 51°04' E 001°24'4 4.0
2017-May-24 13:30N 51°07' E 001°20'4 7.6
2017-May-24 13:01N 51°06' E 001°26'1019.6
2017-May-24 12:31N 51°01' E 001°39'815.9
2017-May-24 12:00N 50°58' E 001°51'0 0.5
2017-May-24 11:30N 50°58' E 001°51'0 0.7
2017-May-24 11:01N 50°58' E 001°51'917.4
2017-May-24 10:30N 50°60' E 001°37'917.9
2017-May-24 10:00N 51°05' E 001°25'4 7.9
2017-May-24 09:29N 51°07' E 001°20'0 0.0
2017-May-24 09:00N 51°07' E 001°20'3 6.2
2017-May-24 08:31N 51°07' E 001°25'918.8
2017-May-24 08:01N 51°01' E 001°37'917.4
2017-May-24 07:30N 50°58' E 001°50'1 1.3
2017-May-24 07:00N 50°58' E 001°51'0 0.0
2017-May-24 06:30N 50°58' E 001°51'3 6.2
2017-May-24 06:00N 50°58' E 001°46'918.0
2017-May-24 05:30N 51°01' E 001°33'1018.8
2017-May-24 05:00N 51°07' E 001°21'1 1.4
2017-May-24 04:30N 51°07' E 001°20'0 0.0
2017-May-24 04:00N 51°07' E 001°20'2 4.2
2017-May-24 03:30N 51°07' E 001°23'918.4
2017-May-24 03:00N 51°03' E 001°36'917.8
2017-May-24 02:30N 50°58' E 001°48'2 3.5
2017-May-24 02:01N 50°58' E 001°51'0 0.0
2017-May-24 01:30N 50°58' E 001°51'1 1.2
2017-May-24 01:00N 50°58' E 001°50'816.3
2017-May-24 00:31N 50°60' E 001°38'917.3
2017-May-24 00:00N 51°05' E 001°27'5 9.5
2017-May-23 23:30N 51°07' E 001°20'0 0.0
2017-May-23 23:00N 51°07' E 001°20'2 4.2
2017-May-23 22:31N 51°07' E 001°23'816.2
2017-May-23 22:01N 51°03' E 001°35'816.7
2017-May-23 21:31N 50°58' E 001°45'4 7.3
2017-May-23 21:01N 50°58' E 001°51'0 0.0
2017-May-23 20:30N 50°58' E 001°51'5 9.7
2017-May-23 20:00N 50°58' E 001°44'917.3
2017-May-23 19:30N 51°02' E 001°31'816.4
2017-May-23 19:00N 51°07' E 001°21'1 1.1
2017-May-23 18:29N 51°08' E 001°20'0 0.0
2017-May-23 18:00N 51°08' E 001°20'611.2
2017-May-23 17:30N 51°05' E 001°28'1019.8
2017-May-23 17:00N 50°60' E 001°41'612.7
2017-May-23 16:30N 50°58' E 001°51'0 0.0
2017-May-23 16:00N 50°58' E 001°51'1 1.6
2017-May-23 15:30N 50°58' E 001°50'815.7
2017-May-23 15:00N 50°59' E 001°38'918.0
2017-May-23 14:30N 51°04' E 001°26'5 4.8
2017-May-23 13:30N 51°07' E 001°20'3 7.0
2017-May-23 13:01N 51°06' E 001°25'917.8
2017-May-23 12:31N 51°02' E 001°37'816.5
2017-May-23 12:01N 50°58' E 001°49'1 2.4
2017-May-23 11:30N 50°58' E 001°51'0 0.6
2017-May-23 11:00N 50°58' E 001°51'817.0
2017-May-23 10:30N 50°60' E 001°38'917.9
2017-May-23 10:00N 51°05' E 001°26'4 8.9
2017-May-23 09:30N 51°07' E 001°20'0 0.0
2017-May-23 08:59N 51°07' E 001°20'3 6.9
2017-May-23 08:30N 51°07' E 001°25'918.4
2017-May-23 08:00N 51°02' E 001°38'816.2
2017-May-23 07:30N 50°58' E 001°50'1 2.3
2017-May-23 07:00N 50°58' E 001°51'0 0.0
2017-May-23 06:30N 50°58' E 001°51'3 5.4
2017-May-23 06:01N 50°58' E 001°47'917.0
2017-May-23 05:30N 51°01' E 001°34'917.1
2017-May-23 05:00N 51°06' E 001°23'2 4.7
2017-May-23 04:30N 51°07' E 001°20'0 0.0
2017-May-23 03:59N 51°07' E 001°20'2 5.0
2017-May-23 03:31N 51°07' E 001°24'917.4
2017-May-23 03:01N 51°02' E 001°35'816.9
2017-May-23 02:30N 50°58' E 001°47'3 5.0
2017-May-23 02:00N 50°58' E 001°51'0 0.0
2017-May-23 01:30N 50°58' E 001°51'0 0.9
2017-May-23 01:01N 50°58' E 001°51'816.4
2017-May-23 00:31N 50°59' E 001°38'917.5
2017-May-23 00:01N 51°05' E 001°27'5 9.7
2017-May-22 23:30N 51°07' E 001°20'0 0.0
2017-May-22 23:00N 51°07' E 001°20'3 6.1
2017-May-22 22:30N 51°07' E 001°25'816.2
2017-May-22 22:00N 51°02' E 001°36'815.5
2017-May-22 21:31N 50°58' E 001°46'3 6.6
2017-May-22 21:00N 50°58' E 001°51'0 0.0
2017-May-22 20:30N 50°58' E 001°51'2 4.4
2017-May-22 20:00N 50°58' E 001°48'917.8
2017-May-22 19:31N 50°60' E 001°34'816.3
2017-May-22 19:01N 51°05' E 001°24'3 6.6
2017-May-22 18:30N 51°07' E 001°20'0 0.0
2017-May-22 18:00N 51°07' E 001°20'511.0
2017-May-22 17:30N 51°06' E 001°28'1019.9
2017-May-22 17:00N 50°60' E 001°41'713.6
2017-May-22 16:30N 50°58' E 001°51'0 0.0
2017-May-22 16:00N 50°58' E 001°51'1 2.4
2017-May-22 15:30N 50°58' E 001°49'816.1
2017-May-22 15:01N 50°59' E 001°37'1313.2
2017-May-22 14:00N 51°07' E 001°20'0 0.0
2017-May-22 13:30N 51°07' E 001°20'5 9.7
2017-May-22 13:00N 51°06' E 001°28'918.1
2017-May-22 12:30N 51°01' E 001°39'816.4
2017-May-22 12:01N 50°58' E 001°51'0 0.4
2017-May-22 11:30N 50°58' E 001°51'0 0.2
2017-May-22 11:00N 50°58' E 001°51'815.5
2017-May-22 10:30N 50°59' E 001°39'816.8
2017-May-22 10:00N 51°04' E 001°28'612.4
2017-May-22 09:30N 51°07' E 001°20'0 0.0
2017-May-22 09:00N 51°07' E 001°20'4 7.2
2017-May-22 08:30N 51°07' E 001°26'918.3
2017-May-22 08:00N 51°02' E 001°38'815.9
2017-May-22 07:31N 50°58' E 001°49'1 2.4
2017-May-22 07:00N 50°58' E 001°51'0 0.0
2017-May-22 06:30N 50°58' E 001°51'2 4.4
2017-May-22 06:00N 50°58' E 001°48'917.5
2017-May-22 05:31N 50°59' E 001°34'917.2
2017-May-22 05:00N 51°06' E 001°24'3 6.4
2017-May-22 04:30N 51°07' E 001°20'0 0.0
2017-May-22 04:00N 51°07' E 001°20'2 3.5
2017-May-22 03:30N 51°07' E 001°23'816.9
2017-May-22 03:00N 51°03' E 001°34'917.3
2017-May-22 02:30N 50°58' E 001°46'3 6.6
2017-May-22 02:01N 50°58' E 001°51'0 0.0
2017-May-22 01:31N 50°58' E 001°51'1 1.7
2017-May-22 01:00N 50°58' E 001°50'816.2
2017-May-22 00:30N 50°59' E 001°37'816.9
2017-May-22 00:00N 51°05' E 001°27'5 9.8
2017-May-21 23:30N 51°07' E 001°20'0 0.0
2017-May-21 23:00N 51°07' E 001°20'2 4.6
2017-May-21 22:30N 51°07' E 001°24'815.9
2017-May-21 22:00N 51°03' E 001°35'816.5
2017-May-21 21:31N 50°58' E 001°45'4 7.6
2017-May-21 21:00N 50°58' E 001°51'0 0.0
2017-May-21 20:30N 50°58' E 001°51'3 6.9
2017-May-21 20:00N 50°58' E 001°46'816.0
2017-May-21 19:30N 51°01' E 001°34'816.1
2017-May-21 19:00N 51°06' E 001°24'3 5.7
2017-May-21 18:31N 51°07' E 001°20'0 0.0
2017-May-21 18:00N 51°07' E 001°20'510.6
2017-May-21 17:31N 51°06' E 001°28'918.2
2017-May-21 17:01N 51°01' E 001°40'714.9
2017-May-21 16:30N 50°58' E 001°51'0 0.2
2017-May-21 16:00N 50°58' E 001°51'1 1.6
2017-May-21 15:31N 50°58' E 001°50'816.2
2017-May-21 15:00N 50°59' E 001°37'1413.6
2017-May-21 14:00N 51°07' E 001°20'0 0.0
2017-May-21 13:30N 51°07' E 001°20'4 8.8
2017-May-21 13:00N 51°06' E 001°27'1019.0
2017-May-21 12:30N 51°01' E 001°39'816.0
2017-May-21 12:00N 50°58' E 001°51'0 0.5
2017-May-21 11:30N 50°58' E 001°52'0 0.0
2017-May-21 11:00N 50°58' E 001°52'0 0.0
2017-May-21 10:30N 50°58' E 001°52'0 0.0
2017-May-21 10:00N 50°58' E 001°52'0 0.2
2017-May-21 09:30N 50°58' E 001°52'0 0.0
2017-May-21 09:00N 50°58' E 001°52'0 0.0
2017-May-21 08:30N 50°58' E 001°52'0 0.0
2017-May-21 08:00N 50°58' E 001°52'0 0.0
2017-May-21 07:30N 50°58' E 001°52'0 0.0
2017-May-21 07:00N 50°58' E 001°52'0 0.0
2017-May-21 06:30N 50°58' E 001°52'0 0.2
2017-May-21 06:00N 50°58' E 001°52'0 0.0
2017-May-21 05:30N 50°58' E 001°52'0 0.0
2017-May-21 05:00N 50°58' E 001°52'0 0.0
2017-May-21 04:30N 50°58' E 001°52'0 0.0
2017-May-21 04:00N 50°58' E 001°52'0 0.0
2017-May-21 03:30N 50°58' E 001°52'0 0.0
2017-May-21 03:00N 50°58' E 001°52'0 0.0
2017-May-21 02:30N 50°58' E 001°52'0 0.0
2017-May-21 02:00N 50°58' E 001°52'0 0.0
2017-May-21 01:30N 50°58' E 001°52'3 5.3
2017-May-21 01:00N 50°58' E 001°48'816.6
2017-May-21 00:30N 51°00' E 001°35'917.1
2017-May-21 00:00N 51°05' E 001°24'3 6.3
2017-May-20 23:31N 51°07' E 001°20'0 0.0
2017-May-20 22:59N 51°07' E 001°20'2 4.0
2017-May-20 22:31N 51°07' E 001°23'917.6
2017-May-20 22:01N 51°02' E 001°35'816.8
2017-May-20 21:31N 50°58' E 001°46'3 6.3
2017-May-20 21:00N 50°58' E 001°51'0 0.0
2017-May-20 20:30N 50°58' E 001°51'3 6.3
2017-May-20 20:00N 50°58' E 001°46'816.8
2017-May-20 19:31N 51°01' E 001°34'816.9
2017-May-20 19:00N 51°06' E 001°23'2 4.8
2017-May-20 18:30N 51°07' E 001°20'0 0.0
2017-May-20 18:00N 51°07' E 001°20'611.2
2017-May-20 17:30N 51°06' E 001°29'1020.3
2017-May-20 17:00N 50°60' E 001°42'612.4
2017-May-20 16:30N 50°58' E 001°51'0 0.0
2017-May-20 16:00N 50°58' E 001°51'0 0.9
2017-May-20 15:30N 50°58' E 001°51'816.6
2017-May-20 15:00N 50°59' E 001°37'918.2
2017-May-20 14:30N 51°05' E 001°26'5 4.7
2017-May-20 13:30N 51°07' E 001°20'4 8.7
2017-May-20 13:00N 51°06' E 001°27'1019.3
2017-May-20 12:30N 51°01' E 001°40'815.2
2017-May-20 12:01N 50°58' E 001°51'0 0.5
2017-May-20 11:31N 50°58' E 001°51'1 2.0
2017-May-20 11:01N 50°58' E 001°50'816.1
2017-May-20 10:31N 51°00' E 001°37'918.7
2017-May-20 10:00N 51°05' E 001°25'4 7.2
2017-May-20 09:31N 51°07' E 001°20'0 0.0
2017-May-20 09:01N 51°07' E 001°20'4 8.6
2017-May-20 08:30N 51°06' E 001°27'918.3
2017-May-20 08:00N 51°01' E 001°39'815.7
2017-May-20 07:31N 50°58' E 001°50'1 1.1
2017-May-20 07:00N 50°58' E 001°51'0 0.0
2017-May-20 06:31N 50°58' E 001°51'3 5.2
2017-May-20 06:00N 50°58' E 001°47'816.6
2017-May-20 05:30N 51°02' E 001°35'917.4
2017-May-20 05:00N 51°06' E 001°23'2 4.7
2017-May-20 04:29N 51°07' E 001°20'0 0.0
2017-May-20 03:59N 51°07' E 001°20'2 4.3
2017-May-20 03:31N 51°07' E 001°23'917.3
2017-May-20 03:01N 51°02' E 001°35'917.1
2017-May-20 02:30N 50°58' E 001°47'3 5.6
2017-May-20 02:00N 50°58' E 001°51'0 0.0
2017-May-20 01:30N 50°58' E 001°51'2 3.6
2017-May-20 01:01N 50°58' E 001°48'815.5
2017-May-20 00:31N 51°00' E 001°36'816.7
2017-May-20 00:01N 51°05' E 001°26'4 8.4
2017-May-19 23:30N 51°07' E 001°20'0 0.0
2017-May-19 23:00N 51°07' E 001°20'2 3.7
2017-May-19 22:30N 51°07' E 001°23'816.5
2017-May-19 22:00N 51°03' E 001°35'816.8
2017-May-19 21:31N 50°58' E 001°45'4 7.6
2017-May-19 21:01N 50°58' E 001°51'0 0.0
2017-May-19 20:30N 50°58' E 001°51'3 6.9
2017-May-19 20:00N 50°58' E 001°46'816.1
2017-May-19 19:30N 51°01' E 001°34'816.2
2017-May-19 19:00N 51°06' E 001°24'3 5.2
2017-May-19 18:29N 51°07' E 001°20'0 0.0
2017-May-19 17:57N 51°07' E 001°20'510.6
2017-May-19 17:30N 51°06' E 001°27'1019.4
2017-May-19 17:00N 51°00' E 001°40'714.6
2017-May-19 16:30N 50°58' E 001°51'0 0.3
2017-May-19 16:00N 50°58' E 001°51'2 3.4
2017-May-19 15:30N 50°58' E 001°49'917.2
2017-May-19 15:00N 50°59' E 001°35'1212.3
2017-May-19 14:01N 51°07' E 001°20'0 0.0
2017-May-19 13:26N 51°07' E 001°20'410.2
2017-May-19 13:00N 51°06' E 001°27'917.7
2017-May-19 12:30N 51°01' E 001°38'816.6
2017-May-19 12:00N 50°58' E 001°50'1 1.2
2017-May-19 11:30N 50°58' E 001°51'0 0.6
2017-May-19 11:00N 50°58' E 001°51'815.6
2017-May-19 10:31N 50°59' E 001°38'918.0
2017-May-19 10:00N 51°05' E 001°27'510.3
2017-May-19 09:30N 51°07' E 001°20'0 0.0
2017-May-19 09:00N 51°07' E 001°20'4 8.2
2017-May-19 08:30N 51°07' E 001°27'917.6
2017-May-19 08:00N 51°01' E 001°38'816.3
2017-May-19 07:30N 50°58' E 001°50'1 1.8
2017-May-19 07:00N 50°58' E 001°51'0 0.0
2017-May-19 06:30N 50°58' E 001°51'3 5.7
2017-May-19 06:00N 50°58' E 001°47'917.1
2017-May-19 05:31N 51°01' E 001°34'917.7
2017-May-19 05:01N 51°06' E 001°23'2 4.0
2017-May-19 04:30N 51°07' E 001°20'0 0.0
2017-May-19 04:00N 51°07' E 001°20'2 4.5
2017-May-19 03:30N 51°07' E 001°24'817.0
2017-May-19 03:00N 51°03' E 001°35'816.6
2017-May-19 02:31N 50°58' E 001°46'3 6.6
2017-May-19 02:00N 50°58' E 001°51'0 0.0
2017-May-19 01:30N 50°58' E 001°51'2 3.7
2017-May-19 01:01N 50°58' E 001°48'816.9
2017-May-19 00:30N 50°60' E 001°35'917.2
2017-May-19 00:00N 51°05' E 001°24'4 7.1
2017-May-18 23:30N 51°07' E 001°20'0 0.0
2017-May-18 23:00N 51°07' E 001°20'2 4.9
2017-May-18 22:30N 51°07' E 001°24'917.4
2017-May-18 22:01N 51°02' E 001°36'816.7
2017-May-18 21:31N 50°58' E 001°47'3 5.1
2017-May-18 21:00N 50°58' E 001°51'0 0.0
2017-May-18 20:30N 50°58' E 001°51'4 8.9
2017-May-18 20:00N 50°58' E 001°44'917.2
2017-May-18 19:30N 51°02' E 001°33'917.4
2017-May-18 19:00N 51°07' E 001°21'1 1.2
2017-May-18 18:30N 51°07' E 001°20'0 0.0
2017-May-18 17:58N 51°07' E 001°20'612.7
2017-May-18 17:30N 51°06' E 001°29'1020.2
2017-May-18 17:01N 50°59' E 001°41'612.7
2017-May-18 16:31N 50°58' E 001°51'0 0.0
2017-May-18 16:01N 50°58' E 001°51'2 3.2
2017-May-18 15:31N 50°58' E 001°49'1019.2
2017-May-18 15:00N 50°59' E 001°34'1211.5
2017-May-18 14:00N 51°07' E 001°20'0 0.0
2017-May-18 13:30N 51°07' E 001°20'714.4
2017-May-18 13:00N 51°04' E 001°30'1122.4
2017-May-18 12:31N 50°58' E 001°45'4 7.8
2017-May-18 12:00N 50°58' E 001°51'0 0.0
2017-May-18 11:30N 50°58' E 001°51'3 5.2
2017-May-18 11:00N 50°58' E 001°47'1019.6
2017-May-18 10:30N 51°01' E 001°32'1019.0
2017-May-18 09:59N 51°07' E 001°20'1 1.5
2017-May-18 09:30N 51°07' E 001°20'0 0.0
2017-May-18 09:00N 51°07' E 001°20'4 7.8
2017-May-18 08:30N 51°07' E 001°26'917.9
2017-May-18 08:00N 51°01' E 001°37'917.3
2017-May-18 07:30N 50°58' E 001°50'1 1.9
2017-May-18 07:00N 50°58' E 001°51'0 0.0
2017-May-18 06:30N 50°58' E 001°51'1 2.5
2017-May-18 06:00N 50°58' E 001°49'816.4
2017-May-18 05:31N 50°60' E 001°36'917.4
2017-May-18 05:01N 51°06' E 001°26'4 8.3
2017-May-18 04:30N 51°07' E 001°20'0 0.0
2017-May-18 04:00N 51°07' E 001°20'2 4.6
2017-May-18 03:30N 51°07' E 001°24'917.5
2017-May-18 03:01N 51°02' E 001°35'816.1
2017-May-18 02:31N 50°58' E 001°46'3 5.8
2017-May-18 02:00N 50°58' E 001°51'0 0.0
2017-May-18 01:30N 50°58' E 001°51'0 0.5
2017-May-18 01:01N 50°58' E 001°51'816.8
2017-May-18 00:31N 50°60' E 001°38'917.8
2017-May-18 00:01N 51°04' E 001°25'5 9.2
2017-May-17 23:30N 51°07' E 001°20'0 0.0
2017-May-17 23:00N 51°07' E 001°20'1 1.1
2017-May-17 22:30N 51°07' E 001°21'917.0
2017-May-17 22:00N 51°04' E 001°33'917.4
2017-May-17 21:30N 50°58' E 001°44'4 8.7
2017-May-17 21:00N 50°58' E 001°51'0 0.0
2017-May-17 20:30N 50°58' E 001°51'3 6.3
2017-May-17 20:01N 50°58' E 001°46'816.8
2017-May-17 19:30N 51°01' E 001°34'918.5
2017-May-17 19:00N 51°06' E 001°22'2 3.1
2017-May-17 18:30N 51°07' E 001°20'0 0.0
2017-May-17 18:00N 51°07' E 001°20'510.9
2017-May-17 17:31N 51°05' E 001°28'918.8
2017-May-17 17:01N 50°60' E 001°40'714.2
2017-May-17 16:31N 50°58' E 001°51'0 0.1
2017-May-17 16:00N 50°58' E 001°51'1 2.1
2017-May-17 15:31N 50°58' E 001°50'816.8
2017-May-17 15:00N 51°00' E 001°37'1312.5
2017-May-17 14:00N 51°07' E 001°20'0 0.0
2017-May-17 13:29N 51°07' E 001°20'4 8.7
2017-May-17 13:00N 51°06' E 001°26'1020.4
2017-May-17 12:30N 51°00' E 001°39'815.2
2017-May-17 12:00N 50°58' E 001°51'0 0.1
2017-May-17 11:31N 50°58' E 001°51'1 1.5
2017-May-17 11:00N 50°58' E 001°50'917.3
2017-May-17 10:30N 50°59' E 001°36'918.8
2017-May-17 10:00N 51°04' E 001°24'4 7.9
2017-May-17 09:30N 51°07' E 001°20'0 0.0
2017-May-17 09:00N 51°07' E 001°20'3 6.4
2017-May-17 08:30N 51°07' E 001°25'918.3
2017-May-17 08:00N 51°01' E 001°37'917.5
2017-May-17 07:30N 50°58' E 001°50'1 1.8
2017-May-17 07:00N 50°58' E 001°51'0 0.0
2017-May-17 06:30N 50°58' E 001°51'2 4.3
2017-May-17 06:00N 50°58' E 001°48'917.5
2017-May-17 05:31N 50°59' E 001°34'917.7
2017-May-17 05:01N 51°05' E 001°23'3 5.6
2017-May-17 04:27N 51°07' E 001°20'0 0.0
2017-May-17 04:00N 51°07' E 001°20'3 5.5
2017-May-17 03:30N 51°07' E 001°24'917.5
2017-May-17 03:00N 51°01' E 001°35'815.7
2017-May-17 02:30N 50°58' E 001°47'3 5.6
2017-May-17 02:00N 50°58' E 001°51'0 0.0
2017-May-17 01:30N 50°58' E 001°51'3 5.4
2017-May-17 01:00N 50°58' E 001°47'817.0
2017-May-17 00:30N 50°57' E 001°33'816.9
2017-May-17 00:00N 51°04' E 001°25'5 9.3
2017-May-16 23:30N 51°07' E 001°20'0 0.0
2017-May-16 22:58N 51°07' E 001°20'1 1.8
2017-May-16 22:31N 51°07' E 001°21'917.5
2017-May-16 22:01N 51°03' E 001°34'918.2
2017-May-16 21:31N 50°58' E 001°46'4 7.0
2017-May-16 21:01N 50°58' E 001°51'0 0.0
2017-May-16 20:30N 50°58' E 001°51'3 6.4
2017-May-16 20:00N 50°58' E 001°46'917.4
2017-May-16 19:30N 51°01' E 001°33'918.2
2017-May-16 19:00N 51°07' E 001°22'1 2.7
2017-May-16 18:31N 51°07' E 001°20'0 0.0
2017-May-16 18:00N 51°07' E 001°20'510.4
2017-May-16 17:30N 51°06' E 001°28'917.9
2017-May-16 17:00N 51°00' E 001°39'815.1
2017-May-16 16:30N 50°58' E 001°51'0 0.3
2017-May-16 16:00N 50°58' E 001°51'1 1.7
2017-May-16 15:31N 50°58' E 001°50'918.8
2017-May-16 15:00N 51°00' E 001°35'1019.4
2017-May-16 14:30N 51°06' E 001°23'2 2.1
2017-May-16 13:30N 51°07' E 001°20'713.3
2017-May-16 13:00N 51°05' E 001°30'1122.1
2017-May-16 12:30N 50°59' E 001°44'5 9.1
2017-May-16 12:01N 50°58' E 001°51'0 0.0
2017-May-16 11:30N 50°58' E 001°51'1 3.0
2017-May-16 11:00N 50°58' E 001°49'917.1
2017-May-16 10:30N 50°60' E 001°36'918.7
2017-May-16 10:00N 51°06' E 001°24'3 6.1
2017-May-16 09:31N 51°07' E 001°20'0 0.0
2017-May-16 09:01N 51°07' E 001°20'3 6.8
2017-May-16 08:30N 51°07' E 001°26'917.8
2017-May-16 08:00N 51°01' E 001°36'816.8
2017-May-16 07:30N 50°58' E 001°49'2 3.2
2017-May-16 07:00N 50°58' E 001°51'0 0.0
2017-May-16 06:30N 50°58' E 001°51'3 5.3
2017-May-16 06:00N 50°58' E 001°47'917.5
2017-May-16 05:30N 51°01' E 001°34'917.8
2017-May-16 05:00N 51°06' E 001°23'2 4.2
2017-May-16 04:30N 51°07' E 001°20'0 0.0
2017-May-16 04:00N 51°07' E 001°20'4 8.1
2017-May-16 03:31N 51°08' E 001°27'815.2
2017-May-16 03:01N 51°07' E 001°39'918.4
2017-May-16 02:31N 50°58' E 001°45'4 8.0
2017-May-16 02:00N 50°58' E 001°51'0 0.0
2017-May-16 01:30N 50°58' E 001°51'1 2.0
2017-May-16 01:00N 50°58' E 001°50'917.1
2017-May-16 00:30N 51°01' E 001°37'917.2
2017-May-16 00:00N 51°05' E 001°25'4 7.7
2017-May-15 23:31N 51°07' E 001°20'0 0.0
2017-May-15 23:01N 51°07' E 001°20'0 0.5
2017-May-15 22:31N 51°07' E 001°20'816.9
2017-May-15 22:01N 51°03' E 001°32'1019.8
2017-May-15 21:30N 50°58' E 001°46'4 7.2
2017-May-15 21:01N 50°58' E 001°51'0 0.0
2017-May-15 20:31N 50°58' E 001°51'612.8
2017-May-15 20:00N 50°58' E 001°41'1019.3
2017-May-15 19:30N 51°03' E 001°28'612.9
2017-May-15 19:00N 51°07' E 001°20'0 0.0
2017-May-15 18:30N 51°07' E 001°20'3 6.2
2017-May-15 18:01N 51°07' E 001°25'918.8
2017-May-15 17:31N 51°03' E 001°38'816.8
2017-May-15 17:01N 50°58' E 001°50'1 2.0
2017-May-15 16:31N 50°58' E 001°51'0 0.0
2017-May-15 16:00N 50°58' E 001°51'1 1.2
2017-May-15 15:31N 50°58' E 001°50'816.6
2017-May-15 15:00N 50°60' E 001°37'1313.2
2017-May-15 14:00N 51°07' E 001°20'0 0.0
2017-May-15 13:29N 51°07' E 001°20'4 8.8
2017-May-15 13:00N 51°07' E 001°27'1020.0
2017-May-15 12:30N 51°01' E 001°40'815.1
2017-May-15 12:01N 50°58' E 001°51'0 0.3
2017-May-15 11:30N 50°58' E 001°51'0 0.9
2017-May-15 11:00N 50°58' E 001°51'  

Dump ship's entire track history